Time;durP1;ratioP1;P1;durP2;ratioP2;P2;SDS_P1;SDS_P2;PMS_P1;PMS_P2;Temp;Humidity;BMP_temperature;BMP_pressure;BME280_temperature;BME280_humidity;BME280_pressure;Samples;Min_cycle;Max_cycle;Signal;HPM_P1;HPM_P2
2023/06/09 00:01:48;;;;;;;75.57;54.65;;;21.30;69.80;;;;;;4952846;28;90078;-71
2023/06/09 00:04:13;;;;;;;76.30;54.88;;;21.30;69.70;;;;;;4955127;28;89479;-72
2023/06/09 00:06:40;;;;;;;76.57;55.35;;;21.30;70.20;;;;;;4956248;28;91578;-72
2023/06/09 00:09:06;;;;;;;75.82;55.03;;;21.20;70.00;;;;;;4943554;28;89493;-72
2023/06/09 00:11:33;;;;;;;76.00;54.95;;;21.20;69.80;;;;;;4951768;28;90930;-71
2023/06/09 00:13:59;;;;;;;76.25;54.50;;;21.20;70.30;;;;;;4950532;28;90373;-71
2023/06/09 00:16:25;;;;;;;75.93;55.13;;;21.20;70.30;;;;;;4956990;28;90064;-73
2023/06/09 00:18:52;;;;;;;75.85;54.92;;;21.20;70.80;;;;;;4934919;28;90407;-72
2023/06/09 00:21:18;;;;;;;77.32;54.75;;;21.10;70.20;;;;;;4957018;28;90511;-71
2023/06/09 00:23:45;;;;;;;77.25;54.95;;;21.10;70.90;;;;;;4943423;28;91605;-74
2023/06/09 00:26:11;;;;;;;77.50;54.80;;;21.10;70.90;;;;;;4946155;28;90234;-71
2023/06/09 00:28:37;;;;;;;75.90;54.95;;;21.10;71.00;;;;;;4958290;28;89886;-69
2023/06/09 00:31:03;;;;;;;76.97;54.75;;;21.10;70.50;;;;;;4942939;28;91924;-71
2023/06/09 00:33:29;;;;;;;74.53;54.22;;;21.00;71.30;;;;;;4946938;28;90156;-70
2023/06/09 00:35:54;;;;;;;75.20;54.67;;;21.00;70.40;;;;;;4937230;28;89811;-70
2023/06/09 00:38:20;;;;;;;76.25;54.47;;;21.00;71.10;;;;;;4959079;28;88935;-71
2023/06/09 00:40:46;;;;;;;75.50;54.42;;;21.00;71.30;;;;;;4951435;28;90376;-71
2023/06/09 00:43:12;;;;;;;75.82;54.45;;;20.90;72.00;;;;;;4955853;28;91832;-73
2023/06/09 00:45:38;;;;;;;76.47;54.38;;;20.90;71.10;;;;;;4940829;28;91457;-72
2023/06/09 00:48:04;;;;;;;74.85;54.25;;;20.90;71.50;;;;;;4960925;28;90554;-70
2023/06/09 00:50:30;;;;;;;75.63;54.72;;;20.90;71.90;;;;;;4952028;28;89823;-71
2023/06/09 00:52:57;;;;;;;75.38;54.70;;;20.90;71.90;;;;;;4955589;28;90545;-72
2023/06/09 00:55:25;;;;;;;75.70;54.65;;;20.80;71.90;;;;;;4936763;28;95820;-73
2023/06/09 00:57:55;;;;;;;76.28;55.13;;;20.80;72.10;;;;;;4936634;28;89565;-72
2023/06/09 01:00:26;;;;;;;77.45;54.85;;;20.80;71.90;;;;;;4959629;28;89445;-71
2023/06/09 01:02:53;;;;;;;75.65;54.70;;;20.80;71.90;;;;;;4956709;28;89769;-70
2023/06/09 01:05:18;;;;;;;76.35;55.05;;;20.80;72.80;;;;;;4947309;28;95581;-72
2023/06/09 01:07:57;;;;;;;76.68;54.63;;;20.70;72.10;;;;;;4935994;28;89429;-71
2023/06/09 01:10:43;;;;;;;75.25;54.42;;;20.80;72.50;;;;;;4953472;28;90473;-72
2023/06/09 01:13:25;;;;;;;75.85;54.42;;;20.70;73.00;;;;;;4950018;28;91219;-71
2023/06/09 01:16:01;;;;;;;76.65;54.70;;;20.70;72.30;;;;;;4950438;28;90344;-71
2023/06/09 01:18:30;;;;;;;76.57;54.50;;;20.70;73.10;;;;;;4955331;28;89736;-69
2023/06/09 01:21:22;;;;;;;74.78;54.63;;;20.70;73.20;;;;;;4949333;28;90083;-72
2023/06/09 01:23:51;;;;;;;;;;;20.60;72.70;;;;;;4952922;28;90092;-70
2023/06/09 01:26:17;;;;;;;74.43;54.03;;;20.60;73.00;;;;;;4938622;28;89502;-71
2023/06/09 01:28:44;;;;;;;76.13;54.53;;;20.60;73.40;;;;;;4952961;28;89468;-71
2023/06/09 01:31:11;;;;;;;74.07;54.50;;;20.60;73.40;;;;;;4944025;28;89859;-71
2023/06/09 01:33:38;;;;;;;76.25;54.42;;;20.60;73.40;;;;;;4951752;28;90367;-71
2023/06/09 01:36:05;;;;;;;75.40;54.88;;;20.60;73.50;;;;;;4955003;28;92028;-71
2023/06/09 01:38:31;;;;;;;74.15;54.60;;;20.60;73.50;;;;;;4952020;28;91405;-72
2023/06/09 01:40:57;;;;;;;77.30;54.42;;;20.50;74.00;;;;;;4954422;28;90484;-70
2023/06/09 01:43:23;;;;;;;75.68;54.38;;;20.50;73.70;;;;;;4956346;28;91198;-70
2023/06/09 01:45:48;;;;;;;75.00;54.30;;;20.50;73.60;;;;;;4953284;28;90214;-71
2023/06/09 01:48:20;;;;;;;75.93;54.30;;;20.50;73.30;;;;;;4950740;28;89542;-70
2023/06/09 01:50:48;;;;;;;74.60;54.33;;;20.50;73.80;;;;;;4952867;28;91242;-73
2023/06/09 01:53:18;;;;;;;76.35;54.90;;;20.50;73.80;;;;;;4948069;28;91042;-71
2023/06/09 01:56:05;;;;;;;74.43;54.15;;;20.50;73.60;;;;;;4956561;28;90570;-70
2023/06/09 01:58:46;;;;;;;74.40;54.15;;;20.50;74.10;;;;;;4953103;28;89881;-72
2023/06/09 02:01:15;;;;;;;75.18;54.55;;;20.50;74.10;;;;;;4932703;28;92631;-72
2023/06/09 02:03:42;;;;;;;74.78;54.55;;;20.50;74.10;;;;;;4954043;28;89854;-72
2023/06/09 02:06:13;;;;;;;74.70;54.13;;;20.50;74.00;;;;;;4954520;28;90013;-71
2023/06/09 02:08:39;;;;;;;74.53;54.42;;;20.40;73.50;;;;;;4949918;28;89669;-71
2023/06/09 02:11:05;;;;;;;76.70;54.67;;;20.40;74.00;;;;;;4932080;28;89754;-71
2023/06/09 02:13:31;;;;;;;76.45;54.65;;;20.40;74.40;;;;;;4958790;28;89475;-72
2023/06/09 02:15:57;;;;;;;75.45;54.58;;;20.40;74.10;;;;;;4942202;28;89544;-72
2023/06/09 02:18:22;;;;;;;75.15;54.78;;;20.40;74.30;;;;;;4961803;28;89421;-72
2023/06/09 02:20:49;;;;;;;74.20;54.15;;;20.30;74.00;;;;;;4953776;28;89822;-70
2023/06/09 02:23:17;;;;;;;73.97;54.28;;;20.40;74.40;;;;;;4951529;28;89895;-70
2023/06/09 02:25:43;;;;;;;75.28;54.80;;;20.30;74.20;;;;;;4955469;28;90889;-72
2023/06/09 02:28:09;;;;;;;75.35;54.92;;;20.20;74.50;;;;;;4948832;28;89989;-70
2023/06/09 02:30:35;;;;;;;74.07;54.33;;;20.20;74.50;;;;;;4955849;28;90291;-70
2023/06/09 02:33:01;;;;;;;74.55;54.47;;;20.30;74.60;;;;;;4954277;28;90532;-71
2023/06/09 02:35:28;;;;;;;76.40;54.15;;;20.20;74.60;;;;;;4946033;28;89925;-71
2023/06/09 02:37:54;;;;;;;74.30;54.42;;;20.20;75.00;;;;;;4954672;28;90364;-70
2023/06/09 02:40:20;;;;;;;75.35;54.72;;;20.20;74.60;;;;;;4933894;28;91280;-71
2023/06/09 02:42:46;;;;;;;75.47;54.50;;;20.20;74.90;;;;;;4951664;28;89205;-72
2023/06/09 02:45:12;;;;;;;74.10;54.28;;;20.20;75.30;;;;;;4948223;28;90468;-71
2023/06/09 02:47:38;;;;;;;75.22;54.10;;;20.20;75.20;;;;;;4951971;28;90865;-71
2023/06/09 02:50:05;;;;;;;74.40;54.60;;;20.20;75.60;;;;;;4946172;28;92238;-73
2023/06/09 02:52:31;;;;;;;75.15;54.28;;;20.10;74.60;;;;;;4923067;28;97746;-73
2023/06/09 02:54:57;;;;;;;73.55;54.05;;;20.10;75.60;;;;;;4949365;28;90455;-71
2023/06/09 02:57:24;;;;;;;76.50;54.53;;;20.10;75.10;;;;;;4943882;28;91374;-73
2023/06/09 02:59:50;;;;;;;74.45;54.42;;;20.10;74.80;;;;;;4949023;28;91167;-71
2023/06/09 03:02:15;;;;;;;75.00;54.22;;;20.10;75.30;;;;;;4949893;28;91163;-72
2023/06/09 03:04:42;;;;;;;74.53;54.13;;;20.10;75.80;;;;;;4954312;28;94396;-71
2023/06/09 03:07:13;;;;;;;75.75;54.15;;;20.10;75.70;;;;;;4933979;28;89804;-71
2023/06/09 03:09:43;;;;;;;74.38;54.53;;;20.10;75.60;;;;;;4943532;28;90512;-69
2023/06/09 03:12:09;;;;;;;74.10;54.35;;;20.10;75.30;;;;;;4950070;28;89706;-72
2023/06/09 03:14:35;;;;;;;74.63;54.38;;;20.00;75.50;;;;;;4946510;28;91720;-71
2023/06/09 03:17:01;;;;;;;73.78;54.80;;;20.00;75.80;;;;;;4952055;28;94582;-74
2023/06/09 03:19:27;;;;;;;74.40;54.38;;;20.00;76.00;;;;;;4944803;28;95297;-72
2023/06/09 03:21:53;;;;;;;75.40;54.67;;;20.00;75.60;;;;;;4948618;28;90137;-74
2023/06/09 03:24:19;;;;;;;75.50;54.65;;;19.90;75.70;;;;;;4939657;28;90693;-72
2023/06/09 03:26:48;;;;;;;73.70;54.60;;;19.90;76.20;;;;;;4940934;28;90263;-72
2023/06/09 03:29:14;;;;;;;74.07;54.47;;;19.90;75.30;;;;;;4948221;28;89684;-71
2023/06/09 03:31:40;;;;;;;75.32;53.92;;;19.90;75.70;;;;;;4952924;28;92118;-72
2023/06/09 03:34:06;;;;;;;75.60;54.22;;;19.90;76.20;;;;;;4947860;28;90113;-71
2023/06/09 03:36:33;;;;;;;76.32;54.10;;;19.90;76.10;;;;;;4949580;28;89593;-73
2023/06/09 03:38:59;;;;;;;73.55;54.22;;;19.90;76.20;;;;;;4953536;28;92135;-71
2023/06/09 03:41:25;;;;;;;74.03;54.15;;;19.90;76.20;;;;;;4950178;28;90387;-72
2023/06/09 03:43:51;;;;;;;74.07;54.72;;;19.90;76.50;;;;;;4952388;28;90799;-70
2023/06/09 03:46:17;;;;;;;75.75;54.38;;;20.00;76.30;;;;;;4949718;28;89655;-73
2023/06/09 03:48:42;;;;;;;73.25;54.10;;;19.90;76.50;;;;;;4954942;28;94403;-72
2023/06/09 03:51:08;;;;;;;73.78;54.25;;;19.80;76.80;;;;;;4950825;28;90246;-72
2023/06/09 03:53:34;;;;;;;77.38;54.25;;;19.90;76.20;;;;;;4959550;28;90666;-72
2023/06/09 03:56:00;;;;;;;74.22;54.38;;;19.90;76.70;;;;;;4948718;28;88653;-74
2023/06/09 03:58:26;;;;;;;74.13;54.05;;;19.90;77.00;;;;;;4941441;28;90205;-73
2023/06/09 04:00:52;;;;;;;73.68;53.95;;;19.90;76.80;;;;;;4955270;28;89448;-72
2023/06/09 04:03:19;;;;;;;73.97;54.45;;;19.80;76.80;;;;;;4949364;28;90303;-71
2023/06/09 04:05:45;;;;;;;74.07;53.97;;;19.90;76.80;;;;;;4950831;28;89984;-72
2023/06/09 04:08:11;;;;;;;75.65;54.92;;;19.80;76.30;;;;;;4955630;28;89456;-72
2023/06/09 04:10:38;;;;;;;77.10;54.95;;;19.90;76.20;;;;;;4951790;28;88763;-73
2023/06/09 04:13:04;;;;;;;75.30;54.33;;;19.80;76.10;;;;;;4956316;28;90102;-72
2023/06/09 04:15:31;;;;;;;76.43;54.13;;;19.90;76.20;;;;;;4949302;28;89200;-72
2023/06/09 04:17:57;;;;;;;74.68;54.55;;;19.90;76.90;;;;;;4951446;28;89780;-73
2023/06/09 04:20:24;;;;;;;76.00;54.45;;;19.90;76.70;;;;;;4946329;28;88687;-71
2023/06/09 04:22:51;;;;;;;77.65;54.33;;;20.00;76.30;;;;;;4947562;28;90508;-75
2023/06/09 04:25:17;;;;;;;75.68;54.22;;;20.00;76.70;;;;;;4955700;28;90063;-76
2023/06/09 04:27:43;;;;;;;75.85;54.17;;;20.10;75.90;;;;;;4962493;28;90386;-75
2023/06/09 04:30:10;;;;;;;77.60;54.38;;;20.10;75.90;;;;;;4958222;28;89698;-74
2023/06/09 04:32:36;;;;;;;75.25;54.78;;;20.20;76.40;;;;;;4951865;28;90132;-72
2023/06/09 04:35:02;;;;;;;75.18;54.13;;;20.20;75.70;;;;;;4954620;28;89771;-72
2023/06/09 04:37:29;;;;;;;77.88;54.25;;;20.20;75.60;;;;;;4940331;28;90469;-75
2023/06/09 04:39:55;;;;;;;75.95;54.58;;;20.20;76.20;;;;;;4958804;28;89188;-73
2023/06/09 04:42:22;;;;;;;75.22;54.70;;;20.20;75.50;;;;;;4956208;28;88861;-74
2023/06/09 04:44:48;;;;;;;75.95;54.63;;;20.30;75.50;;;;;;4955530;28;88657;-73
2023/06/09 04:47:17;;;;;;;74.82;54.53;;;20.30;75.70;;;;;;4944198;28;89741;-74
2023/06/09 04:49:47;;;;;;;74.57;54.33;;;20.30;75.30;;;;;;4953495;28;89422;-73
2023/06/09 04:52:20;;;;;;;74.70;54.45;;;20.30;75.90;;;;;;4949593;28;93877;-75
2023/06/09 04:54:49;;;;;;;76.10;54.80;;;20.30;75.10;;;;;;4957133;28;89566;-75
2023/06/09 04:57:17;;;;;;;75.05;54.35;;;20.40;75.50;;;;;;4955292;28;89265;-75
2023/06/09 04:59:45;;;;;;;75.97;54.92;;;20.30;75.10;;;;;;4952140;28;89339;-73
2023/06/09 05:02:11;;;;;;;76.22;54.58;;;20.40;75.60;;;;;;4937630;28;90002;-72
2023/06/09 05:04:36;;;;;;;78.55;55.50;;;20.40;75.00;;;;;;4947797;28;90453;-73
2023/06/09 05:07:03;;;;;;;78.57;55.78;;;20.40;76.10;;;;;;4948637;28;89421;-74
2023/06/09 05:09:29;;;;;;;81.50;55.78;;;20.50;76.20;;;;;;4938891;28;90686;-74
2023/06/09 05:11:55;;;;;;;79.53;55.95;;;20.50;76.00;;;;;;4958033;28;89410;-73
2023/06/09 05:14:20;;;;;;;80.43;56.13;;;20.50;76.00;;;;;;4937977;28;90361;-74
2023/06/09 05:16:46;;;;;;;80.35;55.80;;;20.50;76.00;;;;;;4955897;28;91010;-74
2023/06/09 05:19:12;;;;;;;81.55;56.40;;;20.50;75.70;;;;;;4958160;28;90407;-74
2023/06/09 05:21:38;;;;;;;79.78;56.60;;;20.60;75.80;;;;;;4956172;28;89080;-76
2023/06/09 05:24:05;;;;;;;84.13;56.55;;;20.60;75.60;;;;;;4934492;28;89838;-76
2023/06/09 05:26:32;;;;;;;82.32;56.67;;;20.60;75.80;;;;;;4948356;28;91348;-73
2023/06/09 05:28:58;;;;;;;81.70;56.80;;;20.60;75.70;;;;;;4951291;28;89770;-73
2023/06/09 05:31:24;;;;;;;83.03;56.15;;;20.70;75.60;;;;;;4960097;28;90870;-75
2023/06/09 05:33:50;;;;;;;83.13;57.10;;;20.70;75.30;;;;;;4966203;28;88705;-73
2023/06/09 05:36:16;;;;;;;81.35;55.97;;;20.70;75.50;;;;;;4939841;28;91002;-75
2023/06/09 05:38:41;;;;;;;80.80;56.13;;;20.70;74.10;;;;;;4940498;28;90682;-74
2023/06/09 05:41:07;;;;;;;83.85;56.45;;;20.70;75.10;;;;;;4957957;28;89804;-74
2023/06/09 05:43:33;;;;;;;82.43;56.45;;;20.70;75.00;;;;;;4958496;28;89518;-73
2023/06/09 05:45:59;;;;;;;82.07;56.15;;;20.70;74.60;;;;;;4960134;28;89130;-75
2023/06/09 05:48:25;;;;;;;82.88;56.53;;;20.70;74.00;;;;;;4956615;28;90582;-75
2023/06/09 05:50:51;;;;;;;80.55;55.60;;;20.70;74.90;;;;;;4951409;28;90523;-76
2023/06/09 05:53:17;;;;;;;81.95;56.42;;;20.70;73.80;;;;;;4957294;28;90060;-74
2023/06/09 05:55:47;;;;;;;82.32;56.13;;;20.80;74.40;;;;;;4957637;28;89718;-75
2023/06/09 05:58:17;;;;;;;79.47;56.08;;;20.80;74.00;;;;;;4960749;28;89969;-75
2023/06/09 06:00:44;;;;;;;78.30;56.05;;;20.80;73.70;;;;;;4951650;28;93721;-75
2023/06/09 06:03:10;;;;;;;79.00;55.80;;;20.90;74.90;;;;;;4938223;28;92853;-75
2023/06/09 06:05:37;;;;;;;82.07;55.78;;;20.90;74.80;;;;;;4947365;28;92617;-72
2023/06/09 06:08:02;;;;;;;81.20;55.92;;;20.90;74.50;;;;;;4932617;28;93112;-73
2023/06/09 06:10:28;;;;;;;82.45;56.45;;;21.00;74.30;;;;;;4935005;28;89549;-76
2023/06/09 06:12:54;;;;;;;78.90;55.75;;;21.00;74.20;;;;;;4955022;28;90553;-73
2023/06/09 06:15:21;;;;;;;80.78;56.20;;;21.00;74.00;;;;;;4954126;28;90530;-76
2023/06/09 06:17:46;;;;;;;78.53;56.00;;;21.10;73.60;;;;;;4935650;28;91560;-72
2023/06/09 06:20:13;;;;;;;80.28;56.17;;;21.10;73.30;;;;;;4953021;28;90280;-74
2023/06/09 06:22:39;;;;;;;82.35;56.25;;;21.10;73.60;;;;;;4955964;28;87979;-73
2023/06/09 06:25:05;;;;;;;83.38;56.63;;;21.20;73.40;;;;;;4948077;28;92695;-73
2023/06/09 06:27:31;;;;;;;81.93;56.92;;;21.20;73.30;;;;;;4951404;28;89498;-74
2023/06/09 06:29:56;;;;;;;80.70;57.88;;;21.20;72.80;;;;;;4953244;28;91610;-74
2023/06/09 06:32:22;;;;;;;82.40;57.05;;;21.20;72.70;;;;;;4954605;28;89199;-72
2023/06/09 06:34:47;;;;;;;78.50;56.85;;;21.20;72.60;;;;;;4956259;28;89620;-73
2023/06/09 06:37:14;;;;;;;82.78;57.60;;;21.20;72.00;;;;;;4951153;28;91042;-72
2023/06/09 06:39:39;;;;;;;81.10;57.55;;;21.20;72.00;;;;;;4927503;28;89291;-74
2023/06/09 06:42:05;;;;;;;81.93;57.70;;;21.30;72.30;;;;;;4948385;28;94137;-72
2023/06/09 06:44:31;;;;;;;80.78;57.20;;;21.30;71.70;;;;;;4946282;28;89653;-74
2023/06/09 06:46:57;;;;;;;82.07;57.67;;;21.30;71.50;;;;;;4952331;28;89397;-74
2023/06/09 06:49:22;;;;;;;81.00;57.85;;;21.30;71.50;;;;;;4947463;28;90893;-73
2023/06/09 06:51:48;;;;;;;85.80;59.20;;;21.30;72.20;;;;;;4954910;28;89336;-73
2023/06/09 06:54:15;;;;;;;84.28;59.88;;;21.30;69.40;;;;;;4937089;28;92857;-70
2023/06/09 06:56:41;;;;;;;86.35;60.03;;;21.40;69.20;;;;;;4970692;28;89695;-70
2023/06/09 06:59:07;;;;;;;83.53;59.33;;;21.50;68.50;;;;;;4965442;28;89563;-70
2023/06/09 07:01:33;;;;;;;85.25;59.67;;;21.60;68.30;;;;;;4963694;28;89589;-71
2023/06/09 07:03:58;;;;;;;85.60;60.08;;;21.70;67.40;;;;;;4961731;28;90162;-73
2023/06/09 07:06:25;;;;;;;89.32;60.05;;;21.70;67.00;;;;;;4958851;28;90159;-67
2023/06/09 07:08:54;;;;;;;84.32;60.08;;;21.80;68.20;;;;;;4965063;28;89561;-75
2023/06/09 07:11:19;;;;;;;84.63;59.17;;;21.90;66.90;;;;;;4961686;28;89377;-72
2023/06/09 07:13:45;;;;;;;85.32;59.90;;;21.90;67.80;;;;;;4972952;28;89218;-72
2023/06/09 07:16:10;;;;;;;84.10;58.90;;;21.80;66.80;;;;;;4966345;28;89089;-71
2023/06/09 07:18:36;;;;;;;82.63;59.25;;;21.70;66.60;;;;;;4973059;28;90462;-73
2023/06/09 07:21:02;;;;;;;82.72;58.70;;;21.70;67.00;;;;;;4961260;28;89633;-72
2023/06/09 07:23:28;;;;;;;83.93;58.25;;;21.70;67.00;;;;;;4964009;28;90393;-70
2023/06/09 07:25:54;;;;;;;83.85;57.78;;;21.80;66.20;;;;;;4942687;28;90300;-71
2023/06/09 07:28:19;;;;;;;83.70;57.50;;;22.00;67.20;;;;;;4930672;28;90645;-71
2023/06/09 07:30:45;;;;;;;81.13;58.05;;;22.10;66.40;;;;;;4947780;28;89782;-71
2023/06/09 07:33:11;;;;;;;86.82;57.95;;;22.20;65.80;;;;;;4936634;28;90801;-72
2023/06/09 07:35:36;;;;;;;82.93;57.55;;;22.30;65.90;;;;;;4956831;28;89362;-69
2023/06/09 07:38:02;;;;;;;80.05;57.70;;;22.30;66.00;;;;;;4932344;28;89687;-72
2023/06/09 07:40:27;;;;;;;81.65;58.03;;;22.40;65.50;;;;;;4950156;28;92837;-71
2023/06/09 07:42:53;;;;;;;80.07;57.38;;;22.40;65.70;;;;;;4949674;28;93903;-70
2023/06/09 07:45:19;;;;;;;81.70;58.03;;;22.40;65.60;;;;;;4952410;28;95177;-71
2023/06/09 07:47:45;;;;;;;84.00;58.25;;;22.50;65.00;;;;;;4950130;28;91533;-68
2023/06/09 07:50:11;;;;;;;83.30;57.75;;;22.50;64.40;;;;;;4953363;28;91132;-70
2023/06/09 07:52:37;;;;;;;81.82;57.22;;;22.60;64.50;;;;;;4949178;28;89672;-71
2023/06/09 07:55:04;;;;;;;79.85;57.22;;;22.60;64.10;;;;;;4952443;28;90122;-70
2023/06/09 07:57:30;;;;;;;82.55;57.88;;;22.70;63.60;;;;;;4953305;28;91055;-72
2023/06/09 07:59:56;;;;;;;84.32;58.03;;;22.70;61.00;;;;;;4946303;28;89104;-70
2023/06/09 08:02:21;;;;;;;82.07;57.67;;;22.70;63.70;;;;;;4955376;28;91074;-72
2023/06/09 08:04:47;;;;;;;81.93;57.42;;;22.70;63.70;;;;;;4951028;28;90117;-73
2023/06/09 08:07:13;;;;;;;80.88;57.92;;;22.80;63.70;;;;;;4939810;28;93677;-71
2023/06/09 08:09:38;;;;;;;81.35;57.83;;;22.80;61.30;;;;;;4948897;28;90408;-73
2023/06/09 08:12:06;;;;;;;86.13;57.78;;;22.80;62.40;;;;;;4949019;28;89578;-70
2023/06/09 08:14:32;;;;;;;84.80;58.22;;;22.90;63.10;;;;;;4959622;28;89672;-70
2023/06/09 08:16:58;;;;;;;84.90;58.50;;;23.00;62.80;;;;;;4950293;28;89927;-71
2023/06/09 08:19:25;;;;;;;81.43;57.90;;;23.00;62.40;;;;;;4954856;28;89475;-72
2023/06/09 08:21:50;;;;;;;82.03;57.97;;;23.00;62.90;;;;;;4960419;28;89465;-71
2023/06/09 08:24:16;;;;;;;81.65;57.38;;;23.00;63.10;;;;;;4961198;28;88856;-72
2023/06/09 08:26:43;;;;;;;85.43;58.25;;;23.10;62.20;;;;;;4954555;28;89507;-72
2023/06/09 08:29:10;;;;;;;80.47;58.10;;;23.10;61.40;;;;;;4951141;28;89553;-69
2023/06/09 08:31:39;;;;;;;83.22;58.25;;;23.10;60.50;;;;;;4955079;28;90840;-72
2023/06/09 08:34:06;;;;;;;81.65;58.15;;;23.10;61.40;;;;;;4952986;28;90220;-71
2023/06/09 08:36:32;;;;;;;80.65;58.30;;;23.10;61.50;;;;;;4951113;28;90595;-70
2023/06/09 08:38:57;;;;;;;83.22;58.30;;;23.20;62.10;;;;;;4949850;28;89357;-72
2023/06/09 08:41:27;;;;;;;82.78;57.97;;;23.20;61.50;;;;;;4955006;28;89644;-71
2023/06/09 08:43:53;;;;;;;81.57;58.05;;;23.30;61.00;;;;;;4951790;28;90485;-72
2023/06/09 08:46:20;;;;;;;82.90;57.83;;;23.20;61.60;;;;;;4946461;28;94413;-72
2023/06/09 08:48:59;;;;;;;84.18;58.67;;;23.30;62.20;;;;;;4942597;28;89642;-74
2023/06/09 08:51:25;;;;;;;80.35;57.65;;;23.30;59.80;;;;;;4950455;28;89687;-72
2023/06/09 08:53:52;;;;;;;83.13;57.88;;;23.30;61.20;;;;;;4954181;28;89023;-72
2023/06/09 08:56:22;;;;;;;84.85;58.20;;;23.40;61.50;;;;;;4951409;28;91112;-72
2023/06/09 08:58:48;;;;;;;81.75;58.05;;;23.40;61.30;;;;;;4953813;28;92450;-71
2023/06/09 09:01:17;;;;;;;79.20;57.20;;;23.50;61.40;;;;;;4955370;28;89930;-71
2023/06/09 09:03:43;;;;;;;80.35;57.63;;;23.60;59.80;;;;;;4940521;28;89418;-71
2023/06/09 09:06:09;;;;;;;80.95;57.72;;;23.60;60.60;;;;;;4960675;28;89913;-71
2023/06/09 09:08:34;;;;;;;81.53;57.28;;;23.60;60.40;;;;;;4942579;28;89989;-72
2023/06/09 09:11:00;;;;;;;84.82;57.42;;;23.60;59.50;;;;;;4951889;28;94030;-76
2023/06/09 09:13:30;;;;;;;82.00;57.60;;;23.60;59.50;;;;;;4938441;28;91644;-74
2023/06/09 09:15:58;;;;;;;79.28;57.17;;;23.70;59.20;;;;;;4938865;28;89625;-74
2023/06/09 09:18:28;;;;;;;81.55;57.35;;;23.70;59.60;;;;;;4952873;28;90697;-73
2023/06/09 09:20:55;;;;;;;80.47;57.15;;;23.70;59.10;;;;;;4954621;28;91604;-73
2023/06/09 09:23:30;;;;;;;79.78;57.25;;;23.80;58.80;;;;;;4958474;28;90260;-73
2023/06/09 09:25:56;;;;;;;84.82;58.05;;;23.80;59.60;;;;;;4954699;28;89852;-75
2023/06/09 09:28:22;;;;;;;81.50;57.33;;;23.80;59.40;;;;;;4952683;28;89998;-73
2023/06/09 09:30:49;;;;;;;82.30;57.40;;;23.90;57.50;;;;;;4954645;28;97239;-75
2023/06/09 09:33:29;;;;;;;81.32;57.50;;;23.90;58.90;;;;;;4951823;28;90213;-73
2023/06/09 09:35:57;;;;;;;80.80;56.90;;;23.90;57.80;;;;;;4936746;28;89517;-71
2023/06/09 09:38:27;;;;;;;80.95;57.20;;;24.00;57.20;;;;;;4951467;28;93678;-72
2023/06/09 09:40:58;;;;;;;82.95;57.47;;;24.10;57.10;;;;;;4954797;28;91184;-73
2023/06/09 09:43:27;;;;;;;81.65;56.75;;;24.10;58.30;;;;;;4950331;28;90342;-73
2023/06/09 09:45:55;;;;;;;83.13;57.58;;;24.00;58.30;;;;;;4948311;28;90698;-73
2023/06/09 09:48:23;;;;;;;79.55;56.88;;;23.90;59.00;;;;;;4927139;28;89776;-74
2023/06/09 09:50:52;;;;;;;80.35;57.20;;;24.00;56.30;;;;;;4957633;28;90383;-72
2023/06/09 09:53:25;;;;;;;81.20;57.38;;;24.20;54.90;;;;;;4952660;28;89978;-73
2023/06/09 09:55:56;;;;;;;83.05;57.33;;;24.20;57.10;;;;;;4939153;28;89609;-74
2023/06/09 09:58:37;;;;;;;;;;;24.30;56.90;;;;;;4948135;28;90026;-71
2023/06/09 10:01:05;;;;;;;81.15;57.00;;;24.20;57.70;;;;;;4947956;28;90565;-75
2023/06/09 10:03:32;;;;;;;86.25;57.20;;;24.20;56.20;;;;;;4949327;28;93774;-74
2023/06/09 10:06:02;;;;;;;81.18;57.38;;;24.30;56.30;;;;;;4950428;28;91590;-73
2023/06/09 10:08:30;;;;;;;80.87;56.90;;;24.30;57.40;;;;;;4949212;28;95048;-70
2023/06/09 10:10:57;;;;;;;82.03;57.45;;;24.30;56.80;;;;;;4951095;28;97149;-73
2023/06/09 10:13:26;;;;;;;81.68;57.50;;;24.30;57.10;;;;;;4950571;28;89667;-74
2023/06/09 10:15:55;;;;;;;79.15;57.22;;;24.30;57.40;;;;;;4946990;28;89914;-73
2023/06/09 10:18:22;;;;;;;81.80;57.50;;;24.30;56.90;;;;;;4932820;28;90420;-73
2023/06/09 10:20:48;;;;;;;80.13;56.95;;;24.50;55.20;;;;;;4954172;28;90385;-72
2023/06/09 10:23:15;;;;;;;80.45;57.15;;;24.50;55.10;;;;;;4955778;28;90149;-71
2023/06/09 10:25:41;;;;;;;80.40;57.20;;;24.70;54.40;;;;;;4953292;28;90458;-72
2023/06/09 10:28:10;;;;;;;80.93;57.20;;;24.70;54.40;;;;;;4947988;28;89485;-72
2023/06/09 10:30:36;;;;;;;80.68;56.92;;;24.70;54.90;;;;;;4944651;28;90294;-71
2023/06/09 10:33:28;;;;;;;80.32;57.05;;;24.70;53.90;;;;;;4960353;28;91501;-73
2023/06/09 10:35:58;;;;;;;79.82;57.15;;;24.80;53.00;;;;;;4954474;28;90654;-71
2023/06/09 10:38:43;;;;;;;82.28;56.75;;;25.00;52.60;;;;;;4948387;28;90063;-73
2023/06/09 10:41:28;;;;;;;81.90;56.92;;;25.00;53.50;;;;;;4934984;28;89531;-72
2023/06/09 10:44:08;;;;;;;80.47;57.20;;;25.00;52.00;;;;;;4951772;28;90325;-73
2023/06/09 10:46:40;;;;;;;82.05;57.30;;;24.90;53.10;;;;;;4955794;28;89937;-72
2023/06/09 10:49:06;;;;;;;79.85;57.05;;;24.80;54.30;;;;;;4951325;28;91087;-73
2023/06/09 10:51:31;;;;;;;81.75;57.33;;;24.90;52.00;;;;;;4934420;28;90800;-72
2023/06/09 10:54:12;;;;;;;84.78;57.35;;;24.80;55.90;;;;;;4937943;28;92107;-72
2023/06/09 10:56:54;;;;;;;83.50;56.90;;;24.90;53.60;;;;;;4958740;28;89578;-72
2023/06/09 10:59:26;;;;;;;81.95;56.97;;;25.00;53.70;;;;;;4948136;28;90073;-72
2023/06/09 11:02:01;;;;;;;81.50;56.53;;;25.00;55.00;;;;;;4948648;28;91004;-70
2023/06/09 11:04:43;;;;;;;79.95;56.95;;;25.00;54.00;;;;;;4944773;28;90583;-71
2023/06/09 11:07:11;;;;;;;79.90;56.55;;;25.30;50.50;;;;;;4956526;28;90826;-72
2023/06/09 11:09:37;;;;;;;80.05;56.83;;;25.40;48.10;;;;;;4951379;28;89659;-71
2023/06/09 11:12:03;;;;;;;80.90;56.80;;;25.40;51.00;;;;;;4949473;28;91347;-71
2023/06/09 11:14:44;;;;;;;84.28;56.72;;;25.40;51.60;;;;;;4951918;28;90194;-71
2023/06/09 11:17:43;;;;;;;;;;;25.60;51.40;;;;;;4955461;28;90916;-74
2023/06/09 11:20:08;;;;;;;82.18;56.65;;;25.40;51.60;;;;;;4944429;28;89018;-73
2023/06/09 11:22:34;;;;;;;80.15;56.67;;;25.40;52.60;;;;;;4950887;28;90815;-73
2023/06/09 11:25:00;;;;;;;82.45;57.25;;;25.40;53.00;;;;;;4948628;28;93942;-73
2023/06/09 11:27:26;;;;;;;80.25;57.35;;;25.30;52.30;;;;;;4951842;28;93967;-74
2023/06/09 11:30:16;;;;;;;79.80;56.58;;;25.20;52.30;;;;;;4958280;28;90032;-74
2023/06/09 11:32:54;;;;;;;81.72;56.90;;;25.40;51.60;;;;;;4950612;28;92600;-72
2023/06/09 11:35:29;;;;;;;80.85;56.92;;;25.40;51.40;;;;;;4948422;28;90066;-75
2023/06/09 11:37:57;;;;;;;80.60;56.95;;;25.50;50.50;;;;;;4954717;28;89914;-73
2023/06/09 11:40:23;;;;;;;80.90;57.40;;;25.40;51.10;;;;;;4946919;28;89544;-73
2023/06/09 11:42:49;;;;;;;82.18;56.95;;;25.40;50.30;;;;;;4947394;28;90122;-73
2023/06/09 11:45:15;;;;;;;81.07;57.33;;;25.80;50.40;;;;;;4946895;28;89228;-73
2023/06/09 11:47:42;;;;;;;82.57;57.05;;;25.60;53.60;;;;;;4949369;28;90430;-71
2023/06/09 11:50:11;;;;;;;80.65;56.70;;;25.60;54.30;;;;;;4954395;28;89589;-72
2023/06/09 11:52:41;;;;;;;80.47;56.88;;;25.50;55.50;;;;;;4959179;28;90612;-73
2023/06/09 11:55:09;;;;;;;80.27;57.03;;;25.20;55.70;;;;;;4953381;28;90417;-74
2023/06/09 11:57:36;;;;;;;83.18;57.53;;;25.30;56.00;;;;;;4954688;28;89731;-72
2023/06/09 12:00:12;;;;;;;82.75;57.72;;;25.40;55.50;;;;;;4949391;28;90483;-74
2023/06/09 12:02:47;;;;;;;79.80;56.63;;;25.40;53.30;;;;;;4946632;28;89087;-74
2023/06/09 12:05:14;;;;;;;81.97;57.15;;;25.60;51.00;;;;;;4947730;28;94660;-73
2023/06/09 12:07:44;;;;;;;80.82;57.35;;;25.60;51.20;;;;;;4933110;28;90906;-75
2023/06/09 12:10:12;;;;;;;81.20;56.75;;;25.40;56.00;;;;;;4953836;28;89779;-74
2023/06/09 12:12:49;;;;;;;80.28;56.85;;;25.40;51.70;;;;;;4955605;28;90462;-74
2023/06/09 12:15:16;;;;;;;83.40;57.08;;;25.50;51.20;;;;;;4961967;28;90348;-74
2023/06/09 12:17:42;;;;;;;81.82;57.25;;;25.40;51.80;;;;;;4950229;28;92027;-74
2023/06/09 12:20:31;;;;;;;82.28;56.65;;;25.50;51.00;;;;;;4941230;28;89316;-75
2023/06/09 12:23:17;;;;;;;80.05;56.67;;;25.60;51.10;;;;;;4950631;28;90629;-73
2023/06/09 12:25:45;;;;;;;82.70;57.08;;;25.60;48.20;;;;;;4955588;28;89521;-73
2023/06/09 12:28:18;;;;;;;80.78;56.80;;;25.70;50.30;;;;;;4939820;28;90656;-72
2023/06/09 12:30:48;;;;;;;81.82;57.05;;;25.70;51.00;;;;;;4948633;28;89420;-71
2023/06/09 12:33:24;;;;;;;82.70;56.85;;;25.70;51.50;;;;;;4948024;28;90383;-70